Tiempo atmosférico en la estación meteorológica de Piornal, Cáceres (1175 m.)



Fecha
DESCASC
Temp. máxima en grados centígrados (hora)
DESCASC
Temp. mínima en grados centígrados (hora)
DESCASC
Temp. media en grados centígrados
DESCASC
Racha de viento máxima en m/sg (hora)
DESCASC
Velocidad máxima media en intervalos de 10 minutos(hora)
DESCASC
Precipitaciones diarias en mm
DESCASC
Precipitaciones de 00:00 a 06:00 en mm
DESCASC
Precipitaciones de 06:00 a 12:00 en mm
DESCASC
Precipitaciones de 12:00 a 18:00 en mm
DESCASC
Precipitaciones de 18:00 a 24:00 en mm
DESCASC
23-06-2019 23.3 (16:50) 12.6 (07:30) 17.9 6.94 (14:10) 2.78 (13:00) 0 0 0 0 0
22-06-2019 24.3 (17:50) 13.6 (05:20) 18.9 7.78 (04:20) 3.89 (09:20) 0 0 0 0 0
21-06-2019 23.7 (16:50) 10.5 (06:00) 17.1 6.39 (02:50) 2.78 (19:30) 0 0 0 0 0
20-06-2019 21 (16:20) 10.3 (00:00) 15.7 6.94 (16:20) 3.06 (14:30) 0 0 0 0 0
19-06-2019 18.8 (18:10) 11 (00:00) 14.9 6.39 (17:40) 3.61 (17:40) 1.4 0 1.2 0.2 0
18-06-2019 20.1 (14:30) 8.1 (00:00) 14.1 9.44 (16:40) 3.61 (16:10) 0 0 0 0 0
17-06-2019 23.4 (17:30) 11.4 (00:00) 17.4 8.61 (18:20) 3.61 (13:50) 0 0 0 0 0
16-06-2019 22.6 (17:40) 10 (00:00) 16.3 8.33 (17:30) 3.06 (12:00) 0 0 0 0 0
15-06-2019 20.5 (17:50) 5.5 (00:00) 13 6.11 (16:00) 2.78 (16:30) 0 0 0 0 0
14-06-2019 16.1 (17:50) 7 (00:00) 11.6 8.89 (19:40) 3.89 (19:00) 0 0 0 0 0
13-06-2019 19.9 (17:30) 7.3 (00:00) 13.6 8.61 (13:00) 3.61 (10:20) 0 0 0 0 0
12-06-2019 19.5 (18:10) 6 (00:00) 12.8 7.5 (17:50) 3.33 (10:30) 0 0 0 0 0
11-06-2019 16.6 (16:10) 7.9 (00:00) 12.3 11.67 (14:40) 5.56 (13:00) 0 0 0 0 0
10-06-2019 22.1 (16:40) 7.4 (00:00) 14.8 10 (03:20) 3.89 (03:50) 0 0 0 0 0
09-06-2019 20.5 (17:20) 6.8 (00:00) 13.7 8.61 (23:40) 4.17 (23:59) 0 0 0 0 0
08-06-2019 20.4 (16:20) 7.3 (00:00) 13.8 8.61 (06:30) 4.44 (07:00) 0 0 0 0 0
07-06-2019 17 (17:50) 3.4 (00:00) 10.2 9.72 (06:10) 5.28 (08:00) 1.6 1.6 0 0 0
06-06-2019 16 (17:30) 3.6 (00:00) 9.8 11.11 (23:40) 4.44 (22:30) 7.2 0 0 0 7.2
05-06-2019 16.4 (16:50) 5.1 (00:00) 10.7 12.22 (06:00) 6.39 (11:10) 0 0 0 0 0
04-06-2019 18.8 (14:00) 10 (00:00) 14.4 10 (19:10) 4.44 (18:10) 0 0 0 0 0
03-06-2019 26.3 (17:30) 16.9 (00:00) 21.6 10.28 (16:10) 3.61 (19:50) 0 0 0 0 0
02-06-2019 28 (17:50) 17.6 (00:00) 22.8 6.11 (09:50) 3.06 (10:10) 0 0 0 0 0
01-06-2019 28.3 (16:20) 15.9 (00:00) 22.1 5.56 (18:30) 2.78 (06:50) 0 0 0 0 0
31-05-2019 27.7 (17:00) 15.1 (00:00) 21.4 6.94 (11:30) 3.61 (06:30) 0 0 0 0 0
30-05-2019 23.7 (16:10) 11.1 (00:00) 17.4 8.33 (06:10) 4.44 (06:10) 0 0 0 0 0
29-05-2019 24.9 (16:20) 8.9 (00:00) 16.9 5.83 (04:10) 3.06 (16:10) 0 0 0 0 0
28-05-2019 23.9 (16:10) 12.5 (00:00) 18.2 11.67 (19:10) 4.44 (18:50) 0 0 0 0 0
27-05-2019 24.9 (16:20) 12.6 (00:00) 18.8 10.83 (15:40) 4.72 (15:00) 0 0 0 0 0
26-05-2019 23.1 (15:00) 11.6 (00:00) 17.4 10.28 (16:00) 5 (07:50) 0 0 0 0 0

Gráficas

Temp. máximas Temp. mínimas Temp. medias Precipitaciones Rachas de viento máximas Velocidades máximas media en intervalos de 10 minutos

Datos horarios

Fecha y hora oficial Temperatura (ºC) Velocidad del viento (km/h) Dirección del viento Racha (km/h) Dirección de racha Precipitación (mm) Presión (hPa) Tendencia (hPa) Humedad (%)
2019-06-24 23:00:00 16.7 3 Oeste 8 Oeste 0 -- -- 74
2019-06-24 22:00:00 17.2 3 Norte 9 Oeste 0 -- -- 75
2019-06-24 21:00:00 18.7 5 Noroeste 10 Noroeste 0 -- -- 68
2019-06-24 20:00:00 19.2 4 Noroeste 12 Oeste 0 -- -- 65
2019-06-24 19:00:00 19.6 5 Sudoeste 15 Sudoeste 0 -- -- 64
2019-06-24 18:00:00 21.7 4 Sudoeste 22 Sudoeste 0 -- -- 61
2019-06-24 17:00:00 22.5 7 Sur 20 Sur 0 -- -- 58
2019-06-24 16:00:00 22.4 9 Sudoeste 19 Sudoeste 0 -- -- 59
2019-06-24 15:00:00 21.8 9 Sur 27 Sur 0 -- -- 54
2019-06-24 14:00:00 21.8 8 Sudeste 24 Sudeste 0 -- -- 56
2019-06-24 13:00:00 21.1 8 Sudeste 22 Sudeste 0 -- -- 60
2019-06-24 12:00:00 19.5 8 Sur 21 Sur 0 -- -- 67
2019-06-24 11:00:00 18.7 6 Sudeste 14 Sur 0 -- -- 71
2019-06-24 10:00:00 18 3 Sur 11 Sur 0 -- -- 71
2019-06-24 09:00:00 17.2 3 Sur 9 Sur 0 -- -- 69
2019-06-24 08:00:00 15.2 2 Este 4 Sudeste 0 -- -- 75
2019-06-24 07:00:00 15.2 0 Calma 5 Sur 0 -- -- 66
2019-06-24 06:00:00 15.8 0 Calma 4 Oeste 0 -- -- 75
2019-06-24 05:00:00 16.4 3 Noroeste 9 Oeste 0 -- -- 69
2019-06-24 04:00:00 16.7 5 Oeste 12 Oeste 0 -- -- 68
2019-06-24 03:00:00 16.8 6 Sudoeste 13 Sudoeste 0 -- -- 73
2019-06-24 02:00:00 16.5 2 Sudoeste 6 Sudoeste 0 -- -- 48
2019-06-24 01:00:00 16.6 0 Calma 3 Oeste 0 -- -- 45
2019-06-24 00:00:00 16.9 2 Nordeste 4 Noroeste 0 -- -- 45
2019-06-23 23:00:00 17 3 Norte 4 Sudoeste 0 -- -- 46
2019-06-23 22:00:00 18 2 Oeste 6 Oeste 0 -- -- 45
2019-06-23 21:00:00 19.2 3 Oeste 8 Oeste 0 -- -- 40
2019-06-23 20:00:00 19.9 0 Calma 10 Sur 0 -- -- 40
2019-06-23 19:00:00 20.5 3 Sur 19 Sur 0 -- -- 37
2019-06-23 18:00:00 21.1 4 Sur 17 Sur 0 -- -- 37
2019-06-23 17:00:00 22.6 7 Sur 20 Sur 0 -- -- 33
2019-06-23 16:00:00 22.4 8 Sur 24 Sur 0 -- -- 31
2019-06-23 15:00:00 22.4 8 Sur 25 Sur 0 -- -- 33
2019-06-23 14:00:00 21.6 7 Sudeste 21 Sudoeste 0 -- -- 36
2019-06-23 13:00:00 22.1 10 Sudeste 21 Este 0 -- -- 31
2019-06-23 12:00:00 20.6 7 Este 17 Este 0 -- -- 36
2019-06-23 11:00:00 19.8 7 Sudeste 17 Sur 0 -- -- 35
2019-06-23 10:00:00 18.2 5 Sudeste 15 Este 0 -- -- 35
2019-06-23 09:00:00 15 3 Sudeste 9 Sudeste 0 -- -- 49
2019-06-23 08:00:00 12.8 3 Sudeste 6 Sudeste 0 -- -- 48
2019-06-23 07:00:00 12.8 0 Calma 3 Sudeste 0 -- -- 36
2019-06-23 06:00:00 14.1 0 Calma 11 Oeste 0 -- -- 37
2019-06-23 05:00:00 14.5 4 Oeste 12 Sudoeste 0 -- -- 47
2019-06-23 04:00:00 15.1 3 Sudoeste 17 Sur 0 -- -- 36
2019-06-23 03:00:00 15 3 Sudoeste 12 Sur 0 -- -- 36
2019-06-23 02:00:00 14.5 0 Calma 3 Oeste 0 -- -- 35
2019-06-23 01:00:00 14.5 0 Calma 5 Oeste 0 -- -- 36
2019-06-23 00:00:00 16 2 Sur 14 Sudoeste 0 -- -- 31
2019-06-22 23:00:00 17.2 6 Sudoeste 13 Sudoeste 0 -- -- 32
2019-06-22 22:00:00 18.5 2 Sudoeste 7 Sudoeste 0 -- -- 37
2019-06-22 21:00:00 20.7 3 Sur 12 Sudoeste 0 -- -- 37
2019-06-22 20:00:00 21.8 4 Sur 19 Sudoeste 0 -- -- 36
2019-06-22 19:00:00 23.2 5 Sur 20 Sur 0 -- -- 33
2019-06-22 18:00:00 23.7 8 Sudeste 24 Sur 0 -- -- 31
2019-06-22 17:00:00 24 10 Sur 22 Este 0 -- -- 35
2019-06-22 16:00:00 23.4 8 Sudeste 26 Sur 0 -- -- 37
2019-06-22 15:00:00 22.7 6 Sudeste 24 Nordeste 0 -- -- 41
2019-06-22 14:00:00 21.7 9 Este 22 Nordeste 0 -- -- 51
2019-06-22 13:00:00 20.5 9 Este 25 Este 0 -- -- 55
2019-06-22 12:00:00 20.2 11 Este 24 Este 0 -- -- 56
2019-06-22 11:00:00 18.9 9 Este 24 Este 0 -- -- 58
2019-06-22 10:00:00 16.6 12 Este 27 Este 0 -- -- 65
2019-06-22 09:00:00 15.6 12 Este 28 Este 0 -- -- 65
2019-06-22 08:00:00 14.3 10 Este 28 Este 0 -- -- 66
2019-06-22 07:00:00 14.5 13 Este 28 Este 0 -- -- 60
2019-06-22 06:00:00 14.2 8 Este 21 Este 0 -- -- 58
2019-06-22 05:00:00 14 13 Este 28 Nordeste 0 -- -- 57
2019-06-22 04:00:00 13.9 9 Este 18 Este 0 -- -- 57
2019-06-22 03:00:00 14.3 8 Este 18 Este 0 -- -- 56
2019-06-22 02:00:00 13.8 7 Este 13 Este 0 -- -- 58
2019-06-22 01:00:00 13.9 4 Este 8 Este 0 -- -- 54
2019-06-22 00:00:00 14.7 3 Nordeste 13 Norte 0 -- -- 51
2019-06-21 23:00:00 15.6 6 Norte 17 Norte 0 -- -- 49
2019-06-21 22:00:00 16.8 5 Norte 18 Noroeste 0 -- -- 49
2019-06-21 21:00:00 19 8 Noroeste 20 Noroeste 0 -- -- 43
2019-06-21 20:00:00 20.5 9 Noroeste 19 Oeste 0 -- -- 41
2019-06-21 19:00:00 21.8 8 Noroeste 20 Noroeste 0 -- -- 40
2019-06-21 18:00:00 22.4 8 Oeste 21 Noroeste 0 -- -- 42
2019-06-21 17:00:00 22.7 7 Noroeste 22 Oeste 0 -- -- 43
2019-06-21 16:00:00 22 8 Oeste 21 Noroeste 0 -- -- 45
2019-06-21 15:00:00 18.6 3 Norte 14 Sudoeste 0 -- -- 57
2019-06-21 14:00:00 18.7 4 Oeste 13 Sur 0 -- -- 58
2019-06-21 13:00:00 17.4 2 Sur 8 Sudoeste 0 -- -- 68
2019-06-21 12:00:00 20.2 5 Sudoeste 14 Este 0 -- -- 58
2019-06-21 11:00:00 18.3 5 Este 16 Este 0 -- -- 58
2019-06-21 10:00:00 16.6 8 Este 16 Nordeste 0 -- -- 61
2019-06-21 09:00:00 14.5 8 Nordeste 14 Este 0 -- -- 68
2019-06-21 08:00:00 11.4 0 Calma 4 Nordeste 0 -- -- 79
2019-06-21 07:00:00 10.8 3 Nordeste 9 Este 0 -- -- 75
2019-06-21 06:00:00 10.5 3 Este 6 Nordeste 0 -- -- 76
2019-06-21 05:00:00 10.8 3 Nordeste 7 Norte 0 -- -- 74
2019-06-21 04:00:00 11.3 4 Norte 12 Norte 0 -- -- 74
2019-06-21 03:00:00 12.3 8 Norte 23 Norte 0 -- -- 73
2019-06-21 02:00:00 12.3 9 Norte 21 Norte 0 -- -- 80
2019-06-21 01:00:00 12.6 5 Norte 19 Noroeste 0 -- -- 80
2019-06-21 00:00:00 13.3 5 Noroeste 13 Sudoeste 0 -- -- 75
2019-06-20 23:00:00 14.5 7 Sudoeste 23 Sudoeste 0 -- -- 70
2019-06-20 22:00:00 15.8 7 Sudoeste 18 Oeste 0 -- -- 56
2019-06-20 21:00:00 17.4 9 Sudoeste 20 Sudoeste 0 -- -- 53
2019-06-20 20:00:00 18.6 9 Sudoeste 22 Sudoeste 0 -- -- 51
2019-06-20 19:00:00 20.1 8 Sudoeste 21 Sudoeste 0 -- -- 50
2019-06-20 18:00:00 20.2 9 Sur 22 Sudoeste 0 -- -- 51
2019-06-20 17:00:00 19.9 6 Sudoeste 25 Sudoeste 0 -- -- 53
2019-06-20 16:00:00 20.6 9 Sudoeste 23 Sudeste 0 -- -- 49
2019-06-20 15:00:00 19.9 7 Sur 23 Sudoeste 0 -- -- 54
2019-06-20 14:00:00 18.1 6 Sur 17 Sur 0 -- -- 61
2019-06-20 13:00:00 17.6 6 Sur 18 Sur 0 -- -- 61
2019-06-20 12:00:00 15.8 7 Sur 16 Sur 0 -- -- 74
2019-06-20 11:00:00 15.2 5 Sur 11 Sudeste 0 -- -- 75
2019-06-20 10:00:00 15.6 4 Sur 12 Sur 0 -- -- 73
2019-06-20 09:00:00 14 3 Sudeste 9 Sur 0 -- -- 79
2019-06-20 08:00:00 11.1 2 Sudeste 4 Sudeste 0 -- -- 89
2019-06-20 07:00:00 10.4 2 Sudeste 4 Sudoeste 0 -- -- 83
2019-06-20 06:00:00 11 2 Sur 9 Sudoeste 0 -- -- 81
2019-06-20 05:00:00 11.5 3 Noroeste 12 Noroeste 0 -- -- 82
2019-06-20 04:00:00 11.3 6 Norte 11 Noroeste 0 -- -- 83
2019-06-20 03:00:00 11.8 4 Norte 9 Oeste 0 -- -- 82
2019-06-20 02:00:00 12.4 5 Oeste 10 Oeste 0 -- -- 81
2019-06-20 01:00:00 13.2 5 Sudoeste 14 Oeste 0 -- -- 77
2019-06-20 00:00:00 13.6 5 Sudoeste 10 Sudoeste 0 -- -- 75
2019-06-19 23:00:00 14 6 Sudoeste 14 Oeste 0 -- -- 72
2019-06-19 22:00:00 14.8 6 Sudoeste 14 Oeste 0 -- -- 69
2019-06-19 21:00:00 16.3 8 Oeste 20 Sudoeste 0 -- -- 66
2019-06-19 20:00:00 17 6 Sudoeste 19 Sudoeste 0 -- -- 65
2019-06-19 19:00:00 17.5 8 Sudoeste 23 Sur 0 -- -- 63
2019-06-19 18:00:00 18.4 9 Sudoeste 23 Sudoeste 0 -- -- 61
2019-06-19 17:00:00 17.1 7 Sudoeste 18 Oeste 0 -- -- 66
2019-06-19 16:00:00 17.2 8 Sudoeste 19 Sur -- -- -- 65
2019-06-19 15:00:00 16.5 7 Sudoeste -- -- -- -- -- 70
2019-06-19 14:00:00 15.7 6 Sudoeste 16 Sudoeste 0 -- -- 74
2019-06-19 13:00:00 14.6 5 Sudoeste 16 Oeste 0 -- -- 80
2019-06-19 12:00:00 13.9 10 Oeste 17 Sur 0 -- -- 83
2019-06-19 11:00:00 12.2 7 Sudoeste 17 Oeste 0 -- -- 93
2019-06-19 10:00:00 11.4 9 Sudoeste 22 Sudoeste 0.6 -- -- 96
2019-06-19 09:00:00 11.7 7 Sudoeste 16 Sudoeste 0.6 -- -- 95
2019-06-19 08:00:00 11.6 5 Sudoeste 16 Oeste 0 -- -- 94
2019-06-19 07:00:00 11.4 7 Oeste 19 Sudoeste 0 -- -- 93
2019-06-19 06:00:00 11.4 8 Oeste 16 Oeste 0 -- -- 95
2019-06-19 05:00:00 11.1 8 Oeste 21 Oeste 0 -- -- 93
2019-06-19 04:00:00 11.7 10 Oeste 20 Oeste 0 -- -- 90
2019-06-19 03:00:00 12.3 7 Sudoeste 21 Sudoeste 0 -- -- 83
2019-06-19 02:00:00 12.6 7 Sudoeste 20 Sudoeste 0 -- -- 81
2019-06-19 01:00:00 13.6 9 Oeste 21 Sudoeste 0 -- -- 72
2019-06-19 00:00:00 14.7 7 Oeste 24 Sudoeste 0 -- -- 72
2019-06-18 23:00:00 15.1 9 Sudoeste 20 Sudoeste 0 -- -- 73
2019-06-18 22:00:00 15.9 6 Sudoeste 17 Sudoeste 0 -- -- 71
2019-06-18 21:00:00 16.4 6 Sudoeste 19 Sudoeste 0 -- -- 69
2019-06-18 20:00:00 17.1 6 Sudoeste 17 Oeste 0 -- -- 66
2019-06-18 19:00:00 17.7 7 Sudoeste 24 Sudoeste 0 -- -- 65
2019-06-18 18:00:00 18.3 9 Sur 27 Sudoeste 0 -- -- 59
2019-06-18 17:00:00 18.4 11 Sur 34 Sudeste 0 -- -- 59
2019-06-18 16:00:00 18.3 11 Sur 27 Sur 0 -- -- 60
2019-06-18 15:00:00 19.4 12 Sur 29 Sudoeste 0 -- -- 49
2019-06-18 14:00:00 20 10 Sur 28 Sudeste 0 -- -- 38
2019-06-18 13:00:00 18 10 Sur 30 Sudoeste 0 -- -- 40
2019-06-18 12:00:00 17.3 10 Sudeste 22 Sur 0 -- -- 36
2019-06-18 11:00:00 16.6 8 Sudeste 23 Sudeste 0 -- -- 38
2019-06-18 10:00:00 15 8 Sudeste 19 Sudeste 0 -- -- 40
2019-06-18 09:00:00 12.7 6 Sudeste 19 Sur 0 -- -- 54
2019-06-18 08:00:00 9.7 6 Sur 15 Sur 0 -- -- 66
2019-06-18 07:00:00 8.6 2 Sudeste 6 Sudeste 0 -- -- 79
2019-06-18 06:00:00 10.1 3 Sudeste 10 Sur 0 -- -- 73
2019-06-18 05:00:00 10.8 3 Sudeste 9 Sur 0 -- -- 64
2019-06-18 04:00:00 12.3 4 Sudeste 11 Sudeste 0 -- -- 54
2019-06-18 03:00:00 13.7 3 Sudeste 9 Sudeste 0 -- -- 42
2019-06-18 02:00:00 14.5 3 Sudeste 10 Sur 0 -- -- 38
2019-06-18 01:00:00 15.3 3 Sudeste 8 Sur 0 -- -- 31
2019-06-18 00:00:00 16.7 3 Sur 6 Sudoeste 0 -- -- 33
2019-06-17 23:00:00 17.5 0 Calma 9 Sudoeste 0 -- -- 30
2019-06-17 22:00:00 18.1 3 Oeste 8 Sudoeste 0 -- -- 28
2019-06-17 21:00:00 19 3 Sudoeste 15 Sudoeste 0 -- -- 29
2019-06-17 20:00:00 20.8 5 Sur 19 Sudeste 0 -- -- 27
2019-06-17 19:00:00 22 7 Sur 31 Sur 0 -- -- 26
2019-06-17 18:00:00 23.1 10 Sur 28 Este 0 -- -- 23
2019-06-17 17:00:00 22.7 7 Sudeste 29 Sudeste 0 -- -- 24
2019-06-17 16:00:00 21.4 10 Este 26 Este 0 -- -- 40
2019-06-17 15:00:00 22.2 7 Este 29 Este 0 -- -- 40
2019-06-17 14:00:00 21.5 12 Este 30 Este 0 -- -- 40
2019-06-17 13:00:00 20.8 13 Este 28 Este 0 -- -- 41
2019-06-17 12:00:00 20.3 7 Sudeste 18 Sudeste 0 -- -- 40
2019-06-17 11:00:00 19.1 6 Sur 15 Sudeste 0 -- -- 44
2019-06-17 10:00:00 17.8 2 Sur 10 Este 0 -- -- 45
2019-06-17 09:00:00 14.9 2 Sudeste 5 Sur 0 -- -- 52
2019-06-17 08:00:00 11.9 0 Calma 3 Sudoeste 0 -- -- 62
2019-06-17 07:00:00 11.8 3 Sudoeste 9 Sudoeste 0 -- -- 55
2019-06-17 06:00:00 12.3 4 Oeste 9 Oeste 0 -- -- 54
2019-06-17 05:00:00 12 4 Sudoeste 9 Sudoeste 0 -- -- 56
2019-06-17 04:00:00 12.3 4 Oeste 7 Oeste 0 -- -- 55
2019-06-17 03:00:00 12.1 0 Calma 4 Sudeste 0 -- -- 47
2019-06-17 02:00:00 12.2 3 Sudeste 6 Sur 0 -- -- 55
2019-06-17 01:00:00 13.1 2 Sudoeste 10 Oeste 0 -- -- 52
2019-06-17 00:00:00 13.9 3 Sudeste 6 Sur 0 -- -- 39
2019-06-16 23:00:00 14.4 3 Sudeste 6 Sudeste 0 -- -- 38
2019-06-16 22:00:00 16.4 4 Sudeste 14 Este 0 -- -- 39
2019-06-16 21:00:00 19 5 Sudeste 18 Sudeste 0 -- -- 36
2019-06-16 20:00:00 20.7 6 Sudeste 15 Sudoeste 0 -- -- 33
2019-06-16 19:00:00 20.7 5 Este 14 Este 0 -- -- 37
2019-06-16 18:00:00 21.6 4 Sudeste 30 Este 0 -- -- 32
2019-06-16 17:00:00 22.4 8 Sur 22 Sur 0 -- -- 33
2019-06-16 16:00:00 21.4 5 Sudeste 14 Nordeste 0 -- -- 35
2019-06-16 15:00:00 19.8 7 Este 24 Nordeste 0 -- -- 38
2019-06-16 14:00:00 18.2 8 Este 20 Este 0 -- -- 47
2019-06-16 13:00:00 18.2 10 Este 21 Nordeste 0 -- -- 43
2019-06-16 12:00:00 17.4 11 Este 21 Este 0 -- -- 44
2019-06-16 11:00:00 17 10 Este 23 Este 0 -- -- 47
2019-06-16 10:00:00 16.3 10 Este 23 Este 0 -- -- 48
2019-06-16 09:00:00 14.3 10 Este 20 Este 0 -- -- 53
2019-06-16 08:00:00 11.8 9 Este 20 Este 0 -- -- 56
2019-06-16 07:00:00 10.7 8 Este 15 Este 0 -- -- 58
2019-06-16 06:00:00 10.4 8 Este 15 Este 0 -- -- 59
2019-06-16 05:00:00 10.2 6 Este 13 Este 0 -- -- 58
2019-06-16 04:00:00 10.2 4 Este 6 Este 0 -- -- 57
2019-06-16 03:00:00 11 4 Este 8 Este 0 -- -- 55
2019-06-16 02:00:00 11.1 4 Nordeste 6 Nordeste 0 -- -- 54
2019-06-16 01:00:00 10.8 2 Norte 3 Norte 0 -- -- 55
2019-06-16 00:00:00 11.1 0 Calma 4 Sudeste 0 -- -- 53
2019-06-15 23:00:00 12 2 Sudoeste 4 Sur 0 -- -- 50
2019-06-15 22:00:00 14.1 2 Sur 11 Sur 0 -- -- 47
2019-06-15 21:00:00 16.5 4 Sudoeste 15 Sudoeste 0 -- -- 43
2019-06-15 20:00:00 17.9 8 Oeste 18 Sur 0 -- -- 36
2019-06-15 19:00:00 19.8 7 Oeste 21 Oeste 0 -- -- 33
2019-06-15 18:00:00 20.4 9 Oeste 21 Noroeste 0 -- -- 31
2019-06-15 17:00:00 19.8 9 Sudoeste 22 Sudoeste 0 -- -- 37
2019-06-15 16:00:00 20.1 9 Oeste 22 Noroeste 0 -- -- 39
2019-06-15 15:00:00 18.8 8 Oeste 21 Noroeste 0 -- -- 43
2019-06-15 14:00:00 16.5 3 Sudeste 19 Sudeste 0 -- -- 49
2019-06-15 13:00:00 15.3 5 Sudeste 18 Nordeste 0 -- -- 54
2019-06-15 12:00:00 15.7 5 Oeste 14 Sudoeste 0 -- -- 55
2019-06-15 11:00:00 13.8 5 Sudoeste 10 Sur 0 -- -- 56
2019-06-15 10:00:00 12.5 5 Sudoeste 12 Sudoeste 0 -- -- 56
2019-06-15 09:00:00 9.9 4 Norte 14 Norte 0 -- -- 63
2019-06-15 08:00:00 6.8 7 Norte 13 Norte 0 -- -- 73
2019-06-15 07:00:00 5.5 5 Norte 18 Norte 0 -- -- 79
2019-06-15 06:00:00 5.8 8 Norte 21 Noroeste 0 -- -- 84
2019-06-15 05:00:00 5.8 6 Norte 13 Noroeste 0 -- -- 83
2019-06-15 04:00:00 6.7 3 Noroeste 13 Oeste 0 -- -- 78
2019-06-15 03:00:00 7.1 8 Oeste 12 Oeste 0 -- -- 75
2019-06-15 02:00:00 7.3 6 Oeste 11 Oeste 0 -- -- 77
2019-06-15 01:00:00 7.2 3 Sudoeste 10 Sudoeste 0 -- -- 75
2019-06-15 00:00:00 8.5 5 Sudoeste 16 Sudoeste 0 -- -- 72
2019-06-14 23:00:00 9.6 6 Sudoeste 24 Sudoeste 0 -- -- 67
2019-06-14 22:00:00 10.5 12 Sudoeste 26 Sudoeste 0 -- -- 59
2019-06-14 21:00:00 12.1 7 Sudoeste 27 Sudoeste 0 -- -- 52
2019-06-14 20:00:00 13.4 12 Sudoeste 32 Sudoeste 0 -- -- 49
2019-06-14 19:00:00 15.4 14 Sudoeste 29 Sudoeste 0 -- -- 40
2019-06-14 18:00:00 15.7 10 Sudoeste 28 Oeste 0 -- -- 41
2019-06-14 17:00:00 15.2 12 Sudoeste 27 Oeste 0 -- -- 44
2019-06-14 16:00:00 15.2 8 Sudoeste 22 Sudoeste 0 -- -- 50
2019-06-14 15:00:00 15.2 8 Sur 24 Sur 0 -- -- 46
2019-06-14 14:00:00 14.6 8 Sur 20 Sur 0 -- -- 42
2019-06-14 13:00:00 14.2 7 Sur 21 Sudeste 0 -- -- 48
2019-06-14 12:00:00 13.6 8 Sudeste 28 Sur 0 -- -- 41
2019-06-14 11:00:00 13.3 7 Sudeste 25 Sudeste 0 -- -- 53
2019-06-14 10:00:00 12.6 9 Sudeste 23 Sur 0 -- -- 50
2019-06-14 09:00:00 10.3 5 Sudeste 13 Sur 0 -- -- 49
2019-06-14 08:00:00 7.8 2 Sudeste 8 Sudeste 0 -- -- 57
2019-06-14 07:00:00 7 2 Sur 10 Sudoeste 0 -- -- 59
2019-06-14 06:00:00 8.4 3 Oeste 13 Sudoeste 0 -- -- 61
2019-06-14 05:00:00 8.7 3 Sudoeste 11 Sur 0 -- -- 61
2019-06-14 04:00:00 9.3 4 Sudeste 12 Sudeste 0 -- -- 56
2019-06-14 03:00:00 10.5 4 Sudeste 9 Sur 0 -- -- 45
2019-06-14 02:00:00 11.3 3 Sudeste 8 Este 0 -- -- 42
2019-06-14 01:00:00 11.2 3 Este 5 Este 0 -- -- 42
2019-06-14 00:00:00 11.7 2 Nordeste 4 Oeste 0 -- -- 40
2019-06-13 23:00:00 13.4 2 Oeste 5 Oeste 0 -- -- 36
2019-06-13 22:00:00 15.1 2 Sudoeste 13 Oeste 0 -- -- 35
2019-06-13 21:00:00 17.4 6 Sudoeste 16 Sudoeste 0 -- -- 31
2019-06-13 20:00:00 17.7 6 Sur 17 Sur 0 -- -- 28
2019-06-13 19:00:00 18.9 7 Sudoeste 20 Sudeste 0 -- -- 25
2019-06-13 18:00:00 19.5 8 Sur 21 Sudoeste 0 -- -- 25
2019-06-13 17:00:00 19.2 6 Sudeste 27 Sur 0 -- -- 26
2019-06-13 16:00:00 18.8 9 Sur 26 Sur 0 -- -- 27
2019-06-13 15:00:00 18.2 7 Sudeste 27 Sur 0 -- -- 30
2019-06-13 14:00:00 17.4 9 Sudeste 30 Este 0 -- -- 32
2019-06-13 13:00:00 15.9 10 Este 31 Este 0 -- -- 37
2019-06-13 12:00:00 15.2 8 Este 27 Este 0 -- -- 37
2019-06-13 11:00:00 14 9 Este 30 Este 0 -- -- 35
2019-06-13 10:00:00 13.1 13 Este 28 Nordeste 0 -- -- 47
2019-06-13 09:00:00 11.6 7 Este 25 Este 0 -- -- 48
2019-06-13 08:00:00 8.7 4 Este 12 Este 0 -- -- 39
2019-06-13 07:00:00 7.8 3 Sudeste 13 Este 0 -- -- 32
2019-06-13 06:00:00 8.1 4 Sudeste 12 Sudeste 0 -- -- 40
2019-06-13 05:00:00 8.8 3 Sudeste 13 Este 0 -- -- 38
2019-06-13 04:00:00 9.5 3 Sudeste 12 Este 0 -- -- 41
2019-06-13 03:00:00 8.5 2 Sudeste 11 Sur 0 -- -- 43
2019-06-13 02:00:00 9.2 2 Sudeste 4 Sudeste 0 -- -- 36
2019-06-13 01:00:00 10.4 3 Sudoeste 9 Oeste 0 -- -- 35
2019-06-13 00:00:00 12.2 5 Oeste 8 Noroeste 0 -- -- 33
2019-06-12 23:00:00 12.8 4 Oeste 8 Oeste 0 -- -- 32
2019-06-12 22:00:00 14.2 4 Oeste 15 Oeste 0 -- -- 29
2019-06-12 21:00:00 16.2 5 Oeste 15 Oeste 0 -- -- 29
2019-06-12 20:00:00 17.3 6 Sudoeste 17 Oeste 0 -- -- 28
2019-06-12 19:00:00 18.9 7 Sudoeste 23 Sudoeste 0 -- -- 22
2019-06-12 18:00:00 19.3 5 Sur 27 Sur 0 -- -- 26
2019-06-12 17:00:00 19.4 9 Sur 22 Oeste 0 -- -- 26
2019-06-12 16:00:00 18.2 7 Sur 24 Sur 0 -- -- 27
2019-06-12 15:00:00 17.8 6 Sudoeste 23 Sudeste 0 -- -- 26
2019-06-12 14:00:00 16.8 5 Sudoeste 19 Nordeste 0 -- -- 30
2019-06-12 13:00:00 15.8 7 Este 23 Sudeste 0 -- -- 36
2019-06-12 12:00:00 14.8 10 Este 24 Nordeste 0 -- -- 39
2019-06-12 11:00:00 13.3 11 Este 25 Este 0 -- -- 42
2019-06-12 10:00:00 12.2 11 Este 24 Este 0 -- -- 44
2019-06-12 09:00:00 10.4 10 Este 24 Este 0 -- -- 47
2019-06-12 08:00:00 8 8 Este 18 Este 0 -- -- 50
2019-06-12 07:00:00 6 6 Este 14 Este 0 -- -- 52
2019-06-12 06:00:00 6.4 0 Calma 6 Este 0 -- -- 48
2019-06-12 05:00:00 6.6 2 Sudeste 5 Sudeste 0 -- -- 45
2019-06-12 04:00:00 6.7 3 Sudeste 7 Sur 0 -- -- 44
2019-06-12 03:00:00 7.4 2 Sudeste 4 Norte 0 -- -- 44
2019-06-12 02:00:00 8.1 0 Calma 11 Nordeste 0 -- -- 42
2019-06-12 01:00:00 9.3 5 Norte 18 Norte 0 -- -- 39
2019-06-12 00:00:00 9.7 8 Norte 21 Norte 0 -- -- 35
2019-06-11 23:00:00 10.2 8 Norte 23 Noroeste 0 -- -- 36
2019-06-11 22:00:00 11.1 9 Norte 27 Norte 0 -- -- 34
2019-06-11 21:00:00 12.7 8 Norte 26 Norte 0 -- -- 32
2019-06-11 20:00:00 14 11 Norte 28 Norte 0 -- -- 29
2019-06-11 19:00:00 15.3 14 Norte 31 Noroeste 0 -- -- 27
2019-06-11 18:00:00 16 14 Norte 35 Noroeste 0 -- -- 28
2019-06-11 17:00:00 16.1 13 Norte 40 Norte 0 -- -- 29
2019-06-11 16:00:00 16.4 13 Norte 32 Nordeste 0 -- -- 33
2019-06-11 15:00:00 15.7 14 Norte 42 Nordeste 0 -- -- 38
2019-06-11 14:00:00 13.8 15 Norte 35 Nordeste 0 -- -- 44
2019-06-11 13:00:00 15.2 20 Noroeste 39 Noroeste 0 -- -- 42
2019-06-11 12:00:00 14.7 15 Norte 37 Noroeste 0 -- -- 47
2019-06-11 11:00:00 13.6 19 Norte 39 Noroeste 0 -- -- 50
2019-06-11 10:00:00 12.6 14 Norte 36 Noroeste 0 -- -- 55
2019-06-11 09:00:00 10.6 14 Norte 33 Noroeste 0 -- -- 65
2019-06-11 08:00:00 8.5 9 Norte 26 Norte 0 -- -- 74
2019-06-11 07:00:00 8.1 7 Norte 26 Norte 0 -- -- 74
2019-06-11 06:00:00 8.3 5 Nordeste 21 Norte 0 -- -- 72
2019-06-11 05:00:00 8.7 6 Nordeste 18 Norte 0 -- -- 69
2019-06-11 04:00:00 9.6 5 Nordeste 18 Nordeste 0 -- -- 71
2019-06-11 03:00:00 10.4 6 Norte 25 Noroeste 0 -- -- 67
2019-06-11 02:00:00 11 13 Norte 26 Noroeste 0 -- -- 62
2019-06-11 01:00:00 11.4 4 Norte 26 Noroeste 0 -- -- 59
2019-06-11 00:00:00 12.5 5 Noroeste 34 Noroeste 0 -- -- 48
2019-06-10 23:00:00 13.5 7 Noroeste 28 Noroeste 0 -- -- 37
2019-06-10 22:00:00 14.7 10 Noroeste 24 Noroeste 0 -- -- 34
2019-06-10 21:00:00 16.5 5 Oeste 25 Oeste 0 -- -- 30
2019-06-10 20:00:00 18.4 10 Oeste 25 Oeste 0 -- -- 30
2019-06-10 19:00:00 20.6 11 Oeste 23 Sudoeste 0 -- -- 30
2019-06-10 18:00:00 21.6 9 Noroeste 27 Oeste 0 -- -- 27
2019-06-10 17:00:00 21.9 13 Oeste 28 Noroeste 0 -- -- 28
2019-06-10 16:00:00 21.8 10 Oeste 24 Oeste 0 -- -- 33
2019-06-10 15:00:00 20.8 8 Noroeste 22 Oeste 0 -- -- 39
2019-06-10 14:00:00 19.9 4 Sur 18 Noroeste 0 -- -- 37
2019-06-10 13:00:00 19.1 6 Oeste 16 Noroeste 0 -- -- 39
2019-06-10 12:00:00 18.3 5 Noroeste 18 Noroeste 0 -- -- 43
2019-06-10 11:00:00 16.9 5 Noroeste 14 Noroeste 0 -- -- 45
2019-06-10 10:00:00 15.3 8 Noroeste 17 Noroeste 0 -- -- 46
2019-06-10 09:00:00 12.4 4 Norte 12 Noroeste 0 -- -- 55
2019-06-10 08:00:00 8.8 2 Norte 12 Nordeste 0 -- -- 67
2019-06-10 07:00:00 7.8 0 Calma 12 Norte 0 -- -- 69
2019-06-10 06:00:00 8.1 4 Norte 13 Norte 0 -- -- 68
2019-06-10 05:00:00 8.9 7 Norte 25 Norte 0 -- -- 68
2019-06-10 04:00:00 9.5 10 Norte 36 Noroeste 0 -- -- 69
2019-06-10 03:00:00 9.9 13 Norte 31 Noroeste 0 -- -- 70
2019-06-10 02:00:00 10.1 12 Noroeste 26 Noroeste 0 -- -- 69
2019-06-10 01:00:00 10.7 12 Noroeste 25 Noroeste 0 -- -- 64
2019-06-10 00:00:00 11.5 15 Noroeste 31 Norte 0 -- -- 58
2019-06-09 23:00:00 12.2 12 Norte 27 Norte 0 -- -- 53
2019-06-09 22:00:00 13.9 12 Noroeste 26 Oeste 0 -- -- 48
2019-06-09 21:00:00 15.4 4 Noroeste 21 Oeste 0 -- -- 43
2019-06-09 20:00:00 17 11 Oeste 25 Sudoeste 0 -- -- 39
2019-06-09 19:00:00 17.4 9 Sudoeste 27 Oeste 0 -- -- 38
2019-06-09 18:00:00 18.2 10 Sudoeste 28 Sudoeste 0 -- -- 36
2019-06-09 17:00:00 20.2 12 Sudoeste 28 Sudoeste 0 -- -- 37
2019-06-09 16:00:00 19.9 8 Oeste 24 Oeste 0 -- -- 43
2019-06-09 15:00:00 19.9 10 Sudoeste 22 Oeste 0 -- -- 38
2019-06-09 14:00:00 19.3 8 Sudoeste 22 Sudoeste 0 -- -- 35
2019-06-09 13:00:00 17.8 6 Sur 14 Sur 0 -- -- 31
2019-06-09 12:00:00 17.4 4 Sur 11 Sudoeste 0 -- -- 44
2019-06-09 11:00:00 16.5 3 Sudoeste 10 Este 0 -- -- 40
2019-06-09 10:00:00 15 5 Este 10 Este 0 -- -- 31
2019-06-09 09:00:00 11.6 0 Calma 5 Sur 0 -- -- 51
2019-06-09 08:00:00 8.2 3 Sur 5 Sur 0 -- -- 48
2019-06-09 07:00:00 6.9 3 Este 5 Este 0 -- -- 45
2019-06-09 06:00:00 7.8 3 Sudeste 9 Sur 0 -- -- 39
2019-06-09 05:00:00 9.4 3 Sur 6 Sudeste 0 -- -- 44
2019-06-09 04:00:00 10.5 2 Sudoeste 12 Sudoeste 0 -- -- 48
2019-06-09 03:00:00 10.5 0 Calma 6 Noroeste 0 -- -- 45
2019-06-09 02:00:00 10.9 4 Oeste 6 Noroeste 0 -- -- 45
2019-06-09 01:00:00 11.9 2 Noroeste 10 Sudoeste 0 -- -- 42
2019-06-09 00:00:00 13.7 5 Oeste 13 Oeste 0 -- -- 35
2019-06-08 23:00:00 14.6 5 Oeste 10 Oeste 0 -- -- 34
2019-06-08 22:00:00 15.5 5 Oeste 12 Sudoeste 0 -- -- 32
2019-06-08 21:00:00 16.8 4 Sudoeste 11 Sudoeste 0 -- -- 35
2019-06-08 20:00:00 18 5 Sudoeste 16 Sudoeste 0 -- -- 33
2019-06-08 19:00:00 18.6 6 Sur 14 Sudoeste 0 -- -- 26
2019-06-08 18:00:00 20.2 7 Sur 21 Sudoeste 0 -- -- 31
2019-06-08 17:00:00 20.1 7 Este 18 Este 0 -- -- 31
2019-06-08 16:00:00 19.2 8 Este 22 Este 0 -- -- 34
2019-06-08 15:00:00 19.3 7 Este 26 Este 0 -- -- 35
2019-06-08 14:00:00 17.5 9 Este 28 Este 0 -- -- 38
2019-06-08 13:00:00 17.4 10 Este 24 Este 0 -- -- 41
2019-06-08 12:00:00 16.1 9 Este 23 Nordeste 0 -- -- 45
2019-06-08 11:00:00 14.8 8 Este 25 Este 0 -- -- 46
2019-06-08 10:00:00 13.2 10 Este 26 Este 0 -- -- 48
2019-06-08 09:00:00 10.9 12 Este 27 Este 0 -- -- 54
2019-06-08 08:00:00 8.4 12 Este 30 Este 0 -- -- 60
2019-06-08 07:00:00 8.1 16 Este 31 Este 0 -- -- 61
2019-06-08 06:00:00 8.6 13 Este 27 Nordeste 0 -- -- 59
2019-06-08 05:00:00 8.2 8 Este 20 Este 0 -- -- 62
2019-06-08 04:00:00 8.1 9 Este 19 Este 0 -- -- 65
2019-06-08 03:00:00 7.4 6 Este 13 Este 0 -- -- 66
2019-06-08 02:00:00 7.4 4 Este 6 Este 0 -- -- 63
2019-06-08 01:00:00 7.8 4 Este 9 Norte 0 -- -- 63
2019-06-08 00:00:00 8.2 5 Norte 13 Noroeste 0 -- -- 59
2019-06-07 23:00:00 8.8 4 Norte 12 Noroeste 0 -- -- 60
2019-06-07 22:00:00 10.2 4 Norte 14 Noroeste 0 -- -- 57
2019-06-07 21:00:00 12.7 5 Noroeste 20 Noroeste 0 -- -- 50
2019-06-07 20:00:00 14.3 6 Noroeste 19 Oeste 0 -- -- 45
2019-06-07 19:00:00 16 8 Oeste 23 Oeste 0 -- -- 41
2019-06-07 18:00:00 17 7 Noroeste 27 Oeste 0 -- -- 39
2019-06-07 17:00:00 16.8 7 Noroeste 20 Oeste 0 -- -- 41
2019-06-07 16:00:00 16 9 Oeste 20 Noroeste 0 -- -- 38
2019-06-07 15:00:00 15.5 8 Oeste 17 Noroeste 0 -- -- 47
2019-06-07 14:00:00 14.2 5 Noroeste 21 Noroeste 0 -- -- 49
2019-06-07 13:00:00 13.3 10 Noroeste 21 Oeste 0 -- -- 54
2019-06-07 12:00:00 11.7 7 Oeste 22 Noroeste 0 -- -- 60
2019-06-07 11:00:00 9.7 11 Noroeste 30 Oeste 0 -- -- 70
2019-06-07 10:00:00 7.7 15 Noroeste 32 Noroeste 0 -- -- 75
2019-06-07 09:00:00 6.2 15 Noroeste 34 Noroeste 0 -- -- 85
2019-06-07 08:00:00 4.3 19 Noroeste 35 Norte 0 -- -- 86
2019-06-07 07:00:00 3.5 10 Noroeste 35 Oeste 0 -- -- 93
2019-06-07 06:00:00 3.4 13 Oeste 33 Noroeste 0 -- -- 93
2019-06-07 05:00:00 3.7 11 Oeste 30 Oeste 0 -- -- 91
2019-06-07 04:00:00 4 10 Oeste 29 Oeste 0 -- -- 91
2019-06-07 03:00:00 5.1 17 Oeste 31 Oeste 0 -- -- 94
2019-06-07 02:00:00 7.2 13 Oeste 31 Sudoeste 0.4 -- -- 98
2019-06-07 01:00:00 7.7 14 Sudoeste 32 Sudoeste 1.2 -- -- 97
2019-06-07 00:00:00 9.2 16 Sudoeste 40 Sudoeste 5.4 -- -- 98
2019-06-06 23:00:00 9.6 13 Sur 36 Sudoeste 1.6 -- -- 93
2019-06-06 22:00:00 10.7 10 Sur 34 Sudoeste 0.2 -- -- 77
2019-06-06 21:00:00 11.9 10 Sur 31 Sur 0 -- -- 66
2019-06-06 20:00:00 13.1 10 Sur 30 Sur 0 -- -- 55
2019-06-06 19:00:00 13.7 10 Sur 31 Sur 0 -- -- 52
2019-06-06 18:00:00 15.3 13 Sur 32 Sudeste 0 -- -- 48
2019-06-06 17:00:00 15.1 11 Sur 33 Sur 0 -- -- 47
2019-06-06 16:00:00 15.3 10 Sudeste 29 Sur 0 -- -- 43
2019-06-06 15:00:00 14.4 9 Sudeste 26 Sur 0 -- -- 45
2019-06-06 14:00:00 13.3 9 Sudeste 22 Sudeste 0 -- -- 49
2019-06-06 13:00:00 12.5 8 Sudeste 20 Sudeste 0 -- -- 52
2019-06-06 12:00:00 11.4 6 Sudeste 22 Sudeste 0 -- -- 56
2019-06-06 11:00:00 10.4 5 Sudeste 19 Este 0 -- -- 65
2019-06-06 10:00:00 9.2 6 Sur 13 Sudoeste 0 -- -- 61
2019-06-06 09:00:00 7.8 6 Sur 13 Sur 0 -- -- 66
2019-06-06 08:00:00 4.9 0 Calma 4 Sudeste 0 -- -- 78
2019-06-06 07:00:00 3.7 3 Este 5 Este 0 -- -- 75
2019-06-06 06:00:00 4 3 Oeste 5 Oeste 0 -- -- 73
2019-06-06 05:00:00 4.9 0 Calma 5 Oeste 0 -- -- 69
2019-06-06 04:00:00 6.3 3 Oeste 8 Oeste 0 -- -- 65
2019-06-06 03:00:00 7.1 5 Oeste 11 Oeste 0 -- -- 62
2019-06-06 02:00:00 7.2 5 Noroeste 14 Noroeste 0 -- -- 65
2019-06-06 01:00:00 7.4 4 Noroeste 15 Noroeste 0 -- -- 64
2019-06-06 00:00:00 7.7 5 Noroeste 9 Norte 0 -- -- 63
2019-06-05 23:00:00 9.1 5 Oeste 12 Oeste 0 -- -- 57
2019-06-05 22:00:00 10.8 4 Oeste 17 Sudoeste 0 -- -- 53
2019-06-05 21:00:00 11.9 6 Sudoeste 23 Sudoeste 0 -- -- 50
2019-06-05 20:00:00 12.8 10 Sudoeste 24 Sudoeste 0 -- -- 45
2019-06-05 19:00:00 13.9 9 Oeste 23 Oeste 0 -- -- 39
2019-06-05 18:00:00 15.7 12 Oeste 32 Sudoeste 0 -- -- 37
2019-06-05 17:00:00 15.8 14 Oeste 32 Oeste 0 -- -- 35
2019-06-05 16:00:00 15.5 14 Oeste 31 Oeste 0 -- -- 40
2019-06-05 15:00:00 15.2 17 Oeste 33 Oeste 0 -- -- 44
2019-06-05 14:00:00 13.3 13 Oeste 36 Noroeste 0 -- -- 49
2019-06-05 13:00:00 13.5 19 Noroeste 39 Noroeste 0 -- -- 47
2019-06-05 12:00:00 12 19 Noroeste 43 Noroeste 0 -- -- 53
2019-06-05 11:00:00 10 22 Noroeste 42 Noroeste 0 -- -- 60
2019-06-05 10:00:00 6.7 12 Noroeste 31 Noroeste 0 -- -- 74
2019-06-05 09:00:00 5.5 3 Oeste 16 Oeste 0 -- -- 80
2019-06-05 08:00:00 5.3 5 Sudoeste 28 Noroeste 0 -- -- 81
2019-06-05 07:00:00 5.4 16 Noroeste 41 Noroeste 0 -- -- 80
2019-06-05 06:00:00 5.4 22 Noroeste 44 Noroeste 0 -- -- 80
2019-06-05 05:00:00 6 14 Norte 32 Noroeste 0 -- -- 77
2019-06-05 04:00:00 6.5 13 Norte 38 Noroeste 0 -- -- 80
2019-06-05 03:00:00 7.2 14 Noroeste 29 Noroeste 0 -- -- 79
2019-06-05 02:00:00 8.2 12 Noroeste 24 Noroeste 0 -- -- 72
2019-06-05 01:00:00 10 7 Noroeste 15 Noroeste 0 -- -- 73
2019-06-05 00:00:00 10.8 7 Oeste 19 Sudoeste 0 -- -- 74
2019-06-04 23:00:00 11.2 9 Sudoeste 26 Sudoeste 0 -- -- 72
2019-06-04 22:00:00 12.2 10 Sudoeste 24 Oeste 0 -- -- 71
2019-06-04 21:00:00 13.5 9 Oeste 27 Sudoeste 0 -- -- 72
2019-06-04 20:00:00 15.2 14 Oeste 36 Sudoeste 0 -- -- 68
2019-06-04 19:00:00 16.8 15 Sudoeste 32 Sudoeste 0 -- -- 63
2019-06-04 18:00:00 18.6 14 Sudoeste 30 Sudoeste 0 -- -- 50
2019-06-04 17:00:00 18.1 10 Sudoeste 25 Oeste 0 -- -- 51
2019-06-04 16:00:00 18.6 13 Sudoeste 26 Sudoeste 0 -- -- 52
2019-06-04 15:00:00 18.8 12 Sudoeste 27 Oeste 0 -- -- 54
2019-06-04 14:00:00 18.8 7 Sudoeste 18 Sudoeste 0 -- -- 59
2019-06-04 13:00:00 17.3 8 Sur 22 Sur 0 -- -- 60
2019-06-04 12:00:00 17.7 5 Sudeste 14 Norte 0 -- -- 70
2019-06-04 11:00:00 16.4 8 Nordeste 17 Nordeste 0 -- -- 69
2019-06-04 10:00:00 14.9 4 Sur 14 Este 0 -- -- 78
2019-06-04 09:00:00 12.1 3 Sur 9 Sur 0 -- -- 88
2019-06-04 08:00:00 10.5 2 Sur 7 Sudoeste 0 -- -- 87
2019-06-04 07:00:00 10.3 0 Calma 6 Sudoeste 0 -- -- 76
2019-06-04 06:00:00 11.4 3 Sudoeste 10 Sudoeste 0 -- -- 71
2019-06-04 05:00:00 12.6 6 Oeste 20 Oeste 0 -- -- 68
2019-06-04 04:00:00 13.5 8 Oeste 17 Oeste 0 -- -- 80
2019-06-04 03:00:00 14.1 8 Oeste 18 Sudoeste 0 -- -- 80
2019-06-04 02:00:00 14.9 10 Sudoeste 21 Sudoeste 0 -- -- 76
2019-06-04 01:00:00 15.8 7 Sudoeste 15 Oeste 0 -- -- 66
2019-06-04 00:00:00 16.9 10 Oeste 21 Sudoeste 0 -- -- 61
2019-06-03 23:00:00 18 12 Oeste 24 Sudoeste 0 -- -- 59
2019-06-03 22:00:00 19.4 10 Oeste 21 Sudoeste 0 -- -- 48
2019-06-03 21:00:00 21.3 9 Sudoeste 26 Oeste 0 -- -- 36
2019-06-03 20:00:00 22.8 12 Sudoeste 30 Oeste 0 -- -- 27
2019-06-03 19:00:00 25 12 Sudoeste 26 Sudoeste 0 -- -- 23
2019-06-03 18:00:00 25.9 10 Sudoeste 24 Sudoeste 0 -- -- 22
2019-06-03 17:00:00 26.1 10 Sudoeste 37 Sudoeste 0 -- -- 23
2019-06-03 16:00:00 25.3 10 Sur 23 Sudoeste 0 -- -- 23
2019-06-03 15:00:00 24.3 6 Sur 14 Sur 0 -- -- 25
2019-06-03 14:00:00 23.8 5 Sur 19 Sudeste 0 -- -- 27
2019-06-03 13:00:00 23.2 5 Sudeste 15 Sur 0 -- -- 28
2019-06-03 12:00:00 20.8 5 Sur 13 Sur 0 -- -- 35
2019-06-03 11:00:00 20.1 6 Sur 13 Sur 0 -- -- 39
2019-06-03 10:00:00 20.2 3 Sur 9 Sudoeste 0 -- -- 34
2019-06-03 09:00:00 18.6 4 Sudoeste 11 Sudoeste 0 -- -- 31
2019-06-03 08:00:00 18.1 6 Sudoeste 14 Oeste 0 -- -- 23
2019-06-03 07:00:00 17.9 6 Oeste 14 Oeste 0 -- -- 20
2019-06-03 06:00:00 18.2 6 Oeste 18 Oeste 0 -- -- 19
2019-06-03 05:00:00 18.2 5 Oeste 14 Oeste 0 -- -- 20
2019-06-03 04:00:00 18.6 5 Sudoeste 14 Oeste 0 -- -- 19
2019-06-03 03:00:00 19.4 7 Oeste 18 Noroeste 0 -- -- 22
2019-06-03 02:00:00 19.4 6 Noroeste 15 Noroeste 0 -- -- 27
2019-06-03 01:00:00 19.8 8 Oeste 15 Oeste 0 -- -- 27
2019-06-03 00:00:00 19.9 5 Noroeste 17 Sudoeste 0 -- -- 32
2019-06-02 23:00:00 20.8 8 Noroeste 20 Oeste 0 -- -- 32
2019-06-02 22:00:00 21.9 6 Oeste 14 Noroeste 0 -- -- 30
2019-06-02 21:00:00 23.3 6 Oeste 16 Sudoeste 0 -- -- 27
2019-06-02 20:00:00 24.7 8 Sudoeste 20 Sudoeste 0 -- -- 29
2019-06-02 19:00:00 25.9 5 Oeste 16 Sudoeste 0 -- -- 28
2019-06-02 18:00:00 28 4 Oeste 16 Oeste 0 -- -- 29
2019-06-02 17:00:00 26.7 7 Sudoeste 15 Sur 0 -- -- 30
2019-06-02 16:00:00 27.5 5 Sudoeste 13 Sudoeste 0 -- -- 30
2019-06-02 15:00:00 26.7 5 Sur 14 Sur 0 -- -- 34
2019-06-02 14:00:00 25.8 7 Este 15 Este 0 -- -- 36
2019-06-02 13:00:00 25.5 7 Este 16 Este 0 -- -- 31
2019-06-02 12:00:00 24.4 6 Este 21 Este 0 -- -- 33
2019-06-02 11:00:00 22.8 8 Este 22 Este 0 -- -- 36
2019-06-02 10:00:00 21 9 Este 22 Este 0 -- -- 39
2019-06-02 09:00:00 18.9 5 Este 21 Este 0 -- -- 44
2019-06-02 08:00:00 17.6 2 Sudeste 13 Este 0 -- -- 46
2019-06-02 07:00:00 17.8 5 Este 13 Este 0 -- -- 41
2019-06-02 06:00:00 17.9 6 Este 11 Este 0 -- -- 39
2019-06-02 05:00:00 17.6 4 Este 9 Este 0 -- -- 38
2019-06-02 04:00:00 18 2 Este 10 Norte 0 -- -- 36
2019-06-02 03:00:00 18.9 4 Norte 21 Norte 0 -- -- 39
2019-06-02 02:00:00 18.3 5 Norte 13 Norte 0 -- -- 40
2019-06-02 01:00:00 18.6 5 Norte 18 Noroeste 0 -- -- 38
2019-06-02 00:00:00 19.5 4 Oeste 7 Oeste 0 -- -- 33
2019-06-01 23:00:00 20.1 4 Oeste 9 Sudoeste 0 -- -- 31
2019-06-01 22:00:00 21.2 5 Sudoeste 9 Sudoeste 0 -- -- 32
2019-06-01 21:00:00 23.3 4 Sudoeste 14 Oeste 0 -- -- 34
2019-06-01 20:00:00 24.4 8 Sudoeste 16 Sudoeste 0 -- -- 29
2019-06-01 19:00:00 26.2 6 Sudoeste 20 Sur 0 -- -- 26
2019-06-01 18:00:00 27.4 7 Sudoeste 18 Oeste 0 -- -- 26
2019-06-01 17:00:00 27.9 5 Sudoeste 19 Sudoeste 0 -- -- 26
2019-06-01 16:00:00 27.8 7 Oeste 17 Sudoeste 0 -- -- 30
2019-06-01 15:00:00 27.3 5 Sudoeste 14 Sudoeste 0 -- -- 30
2019-06-01 14:00:00 26.4 6 Sur 15 Sur 0 -- -- 31
2019-06-01 13:00:00 26.7 5 Sudoeste 13 Sudoeste 0 -- -- 30
2019-06-01 12:00:00 25.8 4 Oeste 10 Sudoeste 0 -- -- 34
2019-06-01 11:00:00 23.3 5 Este 17 Este 0 -- -- 31
2019-06-01 10:00:00 20.9 8 Este 17 Este 0 -- -- 34
2019-06-01 09:00:00 18.4 8 Este 19 Este 0 -- -- 37
2019-06-01 08:00:00 16.8 6 Nordeste 19 Nordeste 0 -- -- 36
2019-06-01 07:00:00 16.1 8 Este 19 Este 0 -- -- 38
2019-06-01 06:00:00 15.9 0 Calma 5 Este 0 -- -- 42
2019-06-01 05:00:00 17.2 3 Este 10 Nordeste 0 -- -- 40
2019-06-01 04:00:00 17.7 7 Este 17 Nordeste 0 -- -- 40
2019-06-01 03:00:00 17.1 4 Este 9 Este 0 -- -- 42
2019-06-01 02:00:00 17.2 0 Calma 3 Este 0 -- -- 42
2019-06-01 01:00:00 17.7 0 Calma 5 Nordeste 0 -- -- 41
2019-06-01 00:00:00 18.1 4 Nordeste 8 Este 0 -- -- 42
2019-05-31 23:00:00 18.9 4 Este 9 Este 0 -- -- 42
2019-05-31 22:00:00 20 4 Nordeste 12 Este 0 -- -- 42
2019-05-31 21:00:00 21.9 3 Este 12 Este 0 -- -- 42
2019-05-31 20:00:00 23.4 2 Este 13 Este 0 -- -- 37
2019-05-31 19:00:00 25.2 5 Este 13 Nordeste 0 -- -- 36
2019-05-31 18:00:00 26.2 4 Este 24 Oeste 0 -- -- 33
2019-05-31 17:00:00 27.7 4 Noroeste 17 Noroeste 0 -- -- 27
2019-05-31 16:00:00 26.9 5 Noroeste 13 Oeste -- -- -- 27
2019-05-31 15:00:00 25 5 Nordeste 17 Este 0 -- -- 36
2019-05-31 14:00:00 23.9 8 Este 23 Nordeste 0 -- -- 34
2019-05-31 13:00:00 22.8 12 Este 24 Este 0 -- -- 35
2019-05-31 12:00:00 22.5 11 Este 25 Este 0 -- -- 34
2019-05-31 11:00:00 21.5 11 Este 23 Este 0 -- -- 36
2019-05-31 10:00:00 20.5 11 Este 22 Este 0 -- -- 36
2019-05-31 09:00:00 18.4 11 Este 21 Este 0 -- -- 37
2019-05-31 08:00:00 16.1 10 Este 22 Nordeste 0 -- -- 39
2019-05-31 07:00:00 15.5 12 Este 24 Este 0 -- -- 38
2019-05-31 06:00:00 15.5 11 Este 21 Este 0 -- -- 39
2019-05-31 05:00:00 16 10 Este 19 Este 0 -- -- 37
2019-05-31 04:00:00 15.5 6 Este 19 Este 0 -- -- 42
2019-05-31 03:00:00 15.3 3 Nordeste 4 Nordeste 0 -- -- 41
2019-05-31 02:00:00 15.5 2 Este 5 Este 0 -- -- 40
2019-05-31 01:00:00 15.9 3 Sudeste 4 Este 0 -- -- 39
2019-05-31 00:00:00 15.8 2 Este -- -- 0 -- -- 41
2019-05-30 23:00:00 16.4 3 Este 6 Este 0 -- -- 42
2019-05-30 22:00:00 17.9 4 Este 9 Este 0 -- -- 41
2019-05-30 21:00:00 19.8 5 Este 13 Nordeste 0 -- -- 43
2019-05-30 20:00:00 21 8 Este 19 Este 0 -- -- 40
2019-05-30 19:00:00 22.1 9 Este 23 Este 0 -- -- 39
2019-05-30 18:00:00 22.9 9 Este 21 Este 0 -- -- 41
2019-05-30 17:00:00 23.6 8 Este 18 Este 0 -- -- 40
2019-05-30 16:00:00 23.4 5 Nordeste 16 Nordeste 0 -- -- 41
2019-05-30 15:00:00 22.5 7 Nordeste 16 Este 0 -- -- 43
2019-05-30 14:00:00 22 6 Nordeste 16 Nordeste 0 -- -- 45
2019-05-30 13:00:00 22.3 3 Nordeste 12 Este 0 -- -- 47
2019-05-30 12:00:00 19.4 6 Este 18 Nordeste 0 -- -- 43
2019-05-30 11:00:00 16.8 11 Nordeste 29 Nordeste 0 -- -- 45
2019-05-30 10:00:00 16.1 14 Este 27 Este 0 -- -- 45
2019-05-30 09:00:00 14.8 10 Este 21 Nordeste 0 -- -- 46
2019-05-30 08:00:00 12.4 4 Nordeste 12 Este 0 -- -- 48
2019-05-30 07:00:00 11.1 9 Nordeste 30 Este 0 -- -- 55
2019-05-30 06:00:00 11.7 14 Este 26 Este 0 -- -- 53
2019-05-30 05:00:00 12.6 12 Este 27 Este 0 -- -- 50
2019-05-30 04:00:00 12.5 9 Este 18 Este 0 -- -- 41
2019-05-30 03:00:00 12.9 3 Este 8 Noroeste 0 -- -- 43
2019-05-30 02:00:00 13.3 3 Noroeste 6 Noroeste 0 -- -- 42
2019-05-30 01:00:00 13.4 2 Norte 4 Nordeste 0 -- -- 43
2019-05-30 00:00:00 14.1 0 Calma 8 Nordeste 0 -- -- 42
2019-05-29 23:00:00 15.1 4 Norte 13 Norte 0 -- -- 40
2019-05-29 22:00:00 16.6 6 Norte 21 Norte 0 -- -- 38
2019-05-29 21:00:00 18.6 9 Norte 21 Nordeste 0 -- -- 37
2019-05-29 20:00:00 20 3 Este 11 Este 0 -- -- 44
2019-05-29 19:00:00 21.7 3 Nordeste 17 Este 0 -- -- 38
2019-05-29 18:00:00 23 3 Sudeste 12 Sur 0 -- -- 41
2019-05-29 17:00:00 23.1 6 Oeste 18 Oeste 0 -- -- 41
2019-05-29 16:00:00 24.4 9 Oeste 20 Oeste 0 -- -- 32
2019-05-29 15:00:00 23.6 8 Noroeste 19 Noroeste 0 -- -- 37
2019-05-29 14:00:00 22.9 9 Noroeste 20 Noroeste 0 -- -- 39
2019-05-29 13:00:00 21.6 10 Noroeste 21 Noroeste 0 -- -- 41
2019-05-29 12:00:00 19.4 8 Noroeste 18 Noroeste 0 -- -- 43
2019-05-29 11:00:00 17.3 4 Noroeste 14 Norte 0 -- -- 49
2019-05-29 10:00:00 16.7 5 Noroeste 13 Norte 0 -- -- 46
2019-05-29 09:00:00 12.7 3 Norte 18 Este 0 -- -- 53
2019-05-29 08:00:00 9.7 7 Nordeste 21 Este 0 -- -- 61
2019-05-29 07:00:00 9.3 9 Nordeste 17 Nordeste 0 -- -- 60
2019-05-29 06:00:00 10.2 8 Nordeste 16 Este 0 -- -- 56
2019-05-29 05:00:00 10.4 5 Este 21 Este 0 -- -- 56
2019-05-29 04:00:00 12.5 9 Nordeste 19 Nordeste 0 -- -- 50
2019-05-29 03:00:00 13 9 Nordeste 18 Nordeste 0 -- -- 46
2019-05-29 02:00:00 12.7 7 Nordeste 16 Nordeste 0 -- -- 49
2019-05-29 01:00:00 13.5 3 Nordeste 12 Norte 0 -- -- 44
2019-05-29 00:00:00 14.6 6 Norte 19 Norte 0 -- -- 39
2019-05-28 23:00:00 15.1 13 Norte 29 Norte 0 -- -- 38
2019-05-28 22:00:00 15.8 12 Norte 36 Norte 0 -- -- 36
2019-05-28 21:00:00 17.3 12 Norte 31 Norte 0 -- -- 34
2019-05-28 20:00:00 18.6 14 Norte 42 Norte 0 -- -- 31
2019-05-28 19:00:00 20.6 14 Norte 31 Norte 0 -- -- 29
2019-05-28 18:00:00 22.7 13 Noroeste 24 Noroeste 0 -- -- 26
2019-05-28 17:00:00 23.6 13 Norte 28 Noroeste 0 -- -- 25
2019-05-28 16:00:00 23.8 13 Noroeste 26 Norte 0 -- -- 27
2019-05-28 15:00:00 23 12 Norte 26 Noroeste 0 -- -- 28
2019-05-28 14:00:00 21.9 10 Norte 23 Norte 0 -- -- 33
2019-05-28 13:00:00 21.7 8 Noroeste 18 Norte 0 -- -- 38
2019-05-28 12:00:00 21 6 Noroeste 15 Norte 0 -- -- 42
2019-05-28 11:00:00 20.4 6 Oeste 13 Oeste 0 -- -- 50
2019-05-28 10:00:00 17.8 2 Norte 12 Este 0 -- -- 54
2019-05-28 09:00:00 14.4 6 Este 18 Este 0 -- -- 61
2019-05-28 08:00:00 12.9 9 Este 25 Este 0 -- -- 63
2019-05-28 07:00:00 12.5 9 Este 21 Este 0 -- -- 63
2019-05-28 06:00:00 12.6 8 Este 24 Nordeste 0 -- -- 65
2019-05-28 05:00:00 13.4 11 Este 28 Este 0 -- -- 62
2019-05-28 04:00:00 14.1 11 Este 24 Este 0 -- -- 56
2019-05-28 03:00:00 13.9 7 Este 15 Este 0 -- -- 57
2019-05-28 02:00:00 15 5 Nordeste 21 Noroeste 0 -- -- 56
2019-05-28 01:00:00 15.5 12 Norte 30 Norte 0 -- -- 52
2019-05-28 00:00:00 16.2 17 Noroeste 29 Noroeste 0 -- -- 46
2019-05-27 23:00:00 16.1 6 Norte 17 Norte 0 -- -- 50
2019-05-27 22:00:00 17.5 7 Noroeste 23 Norte 0 -- -- 48
2019-05-27 21:00:00 19.4 8 Noroeste 24 Noroeste 0 -- -- 42
2019-05-27 20:00:00 20.9 11 Noroeste 25 Noroeste 0 -- -- 37
2019-05-27 19:00:00 23 13 Noroeste 26 Noroeste 0 -- -- 34
2019-05-27 18:00:00 23.9 12 Noroeste 37 Noroeste 0 -- -- 33
2019-05-27 17:00:00 24.5 14 Noroeste 33 Noroeste 0 -- -- 34
2019-05-27 16:00:00 24.8 14 Noroeste 39 Oeste 0 -- -- 34
2019-05-27 15:00:00 24.6 17 Noroeste 37 Noroeste 0 -- -- 35
2019-05-27 14:00:00 24 14 Noroeste 28 Oeste 0 -- -- 39
2019-05-27 13:00:00 24.2 8 Oeste 21 Oeste 0 -- -- 44
2019-05-27 12:00:00 22.8 7 Oeste 14 Sudoeste 0 -- -- 47
2019-05-27 11:00:00 20.7 6 Sudoeste 13 Sudoeste 0 -- -- 48
2019-05-27 10:00:00 18.8 4 Sudoeste 10 Sudoeste 0 -- -- 49
2019-05-27 09:00:00 15.8 2 Sur 4 Sudoeste 0 -- -- 56
2019-05-27 08:00:00 13.1 2 Sudeste 4 Sudoeste 0 -- -- 63
2019-05-27 07:00:00 13 2 Sudoeste 4 Nordeste 0 -- -- 57
2019-05-27 06:00:00 14.1 2 Este 13 Este 0 -- -- 52
2019-05-27 05:00:00 14.3 2 Este 9 Noroeste 0 -- -- 55
2019-05-27 04:00:00 13.8 2 Sudoeste 15 Oeste 0 -- -- 56
2019-05-27 03:00:00 15 6 Oeste 13 Norte 0 -- -- 51
2019-05-27 02:00:00 15.6 9 Noroeste 18 Noroeste 0 -- -- 50
2019-05-27 01:00:00 14.5 5 Noroeste 10 Noroeste 0 -- -- 48
2019-05-27 00:00:00 15.4 6 Nordeste 13 Norte 0 -- -- 45
2019-05-26 23:00:00 16 6 Nordeste 17 Nordeste 0 -- -- 45
2019-05-26 22:00:00 17.1 8 Norte 22 Nordeste 0 -- -- 42
2019-05-26 21:00:00 18.8 10 Norte 25 Noroeste 0 -- -- 38
2019-05-26 20:00:00 20 10 Norte 35 Norte 0 -- -- 36
2019-05-26 19:00:00 21.1 13 Norte 35 Norte 0 -- -- 34
2019-05-26 18:00:00 22.1 12 Norte 36 Norte 0 -- -- 33
2019-05-26 17:00:00 22.1 12 Norte 32 Noroeste 0 -- -- 33
2019-05-26 16:00:00 21.8 15 Norte 37 Nordeste 0 -- -- 34
2019-05-26 15:00:00 23.1 13 Noroeste 28 Norte 0 -- -- 37
2019-05-26 14:00:00 21.7 14 Norte 30 Noroeste 0 -- -- 39
2019-05-26 13:00:00 20.9 13 Norte 33 Noroeste 0 -- -- 42
2019-05-26 12:00:00 20 13 Noroeste 28 Norte 0 -- -- 46
2019-05-26 11:00:00 18.1 12 Norte 31 Norte 0 -- -- 50
2019-05-26 10:00:00 16.4 11 Norte 27 Norte 0 -- -- 50
2019-05-26 09:00:00 14.5 8 Norte 33 Nordeste 0 -- -- 53
2019-05-26 08:00:00 12.8 18 Norte 33 Nordeste 0 -- -- 57
2019-05-26 07:00:00 11.8 13 Norte 31 Norte 0 -- -- 60
2019-05-26 06:00:00 12.1 10 Norte 27 Norte 0 -- -- 59
2019-05-26 05:00:00 11.6 5 Norte 14 Nordeste 0 -- -- 59
2019-05-26 04:00:00 12.8 8 Nordeste 31 Nordeste 0 -- -- 51
2019-05-26 03:00:00 14 15 Nordeste 27 Nordeste 0 -- -- 46
2019-05-26 02:00:00 13.9 8 Norte 25 Norte 0 -- -- 45
2019-05-26 01:00:00 13.9 11 Norte 21 Norte 0 -- -- 45
2019-05-26 00:00:00 13.9 7 Nordeste 27 Norte 0 -- -- 42